メインページ
METAR-TAF:

METAR-TAF

空港 :

マレ, モルディブ

ヴェラナ国際空港

緯度: 04-12N, 経度: 073-32E, 海抜: 2m

現時点の気象観測

当レポートは1時間17分前の11:00(UTC)に作成
の風 14kt
気温 31°C
湿度 66%
気圧 1007 hPa
視程10km以上
高度1900ftの雲はほとんどない

METAR: VRMM 241100Z 08014KT 9999 FEW019 31/24 Q1007 NOSIG

時間: 17:17 (12:17 UTC)

予報

当レポートは1時間17分前の11:00(UTC)に作成
予報は24日の 12時(UTC)から 25日の 18時(UTC)まで有効
東/北東の風 13kt
視程10km以上
高度1900ftの雲はほとんどない

TAF: VRMM 241100Z 2412/2518 06013KT 9999 FEW019

4,000以上の空港の気象観測と天気予報(METAR報とTAF報)

利用可能な観測所は地図上に黄色い丸と赤い丸で示す。

丸の上にカーソルを重ねると観測所名を参照できる。

次にクリックすると気象観測と天気予報を参照できる。

マップの切り替え:黒色「×」印の緑ボタンをクリックして拡大、「-」印の緑ボタンをクリックして縮小、緑色の三角印をクリックして隣りの地図に切り替え


METAR-TAF: